sensor_id;sensor_type;location;lat;lon;timestamp;temperature;humidity
23010;DHT22;11671;49.990;8.028;2023-04-01T00:00:08;11.60;99.90
23010;DHT22;11671;49.990;8.028;2023-04-01T00:02:34;11.60;99.90
23010;DHT22;11671;49.990;8.028;2023-04-01T00:05:00;11.70;99.90
23010;DHT22;11671;49.990;8.028;2023-04-01T00:07:26;11.60;99.90
23010;DHT22;11671;49.990;8.028;2023-04-01T00:09:52;11.60;99.90
23010;DHT22;11671;49.990;8.028;2023-04-01T00:12:18;11.60;99.90
23010;DHT22;11671;49.990;8.028;2023-04-01T00:14:43;11.60;99.90
23010;DHT22;11671;49.990;8.028;2023-04-01T00:17:09;11.50;99.90
23010;DHT22;11671;49.990;8.028;2023-04-01T00:19:34;11.50;99.90
23010;DHT22;11671;49.990;8.028;2023-04-01T00:22:00;11.50;99.90
23010;DHT22;11671;49.990;8.028;2023-04-01T00:24:26;11.50;99.90
23010;DHT22;11671;49.990;8.028;2023-04-01T00:26:54;11.40;99.90
23010;DHT22;11671;49.990;8.028;2023-04-01T00:29:20;11.40;99.90
23010;DHT22;11671;49.990;8.028;2023-04-01T00:31:45;11.40;99.90
23010;DHT22;11671;49.990;8.028;2023-04-01T00:34:11;11.40;99.90
23010;DHT22;11671;49.990;8.028;2023-04-01T00:36:37;11.40;99.90
23010;DHT22;11671;49.990;8.028;2023-04-01T00:39:03;11.40;99.90
23010;DHT22;11671;49.990;8.028;2023-04-01T00:41:29;11.40;99.90
23010;DHT22;11671;49.990;8.028;2023-04-01T00:44:11;11.40;99.90
23010;DHT22;11671;49.990;8.028;2023-04-01T00:46:39;11.40;99.90
23010;DHT22;11671;49.990;8.028;2023-04-01T00:49:04;11.40;99.90
23010;DHT22;11671;49.990;8.028;2023-04-01T00:51:30;11.40;99.90
23010;DHT22;11671;49.990;8.028;2023-04-01T00:53:56;11.40;99.90
23010;DHT22;11671;49.990;8.028;2023-04-01T00:56:27;11.40;99.90
23010;DHT22;11671;49.990;8.028;2023-04-01T00:59:00;11.40;99.90
23010;DHT22;11671;49.990;8.028;2023-04-01T01:01:26;11.40;99.90
23010;DHT22;11671;49.990;8.028;2023-04-01T01:03:53;11.40;99.90
23010;DHT22;11671;49.990;8.028;2023-04-01T01:11:37;11.30;99.90
23010;DHT22;11671;49.990;8.028;2023-04-01T01:16:40;11.40;99.90
23010;DHT22;11671;49.990;8.028;2023-04-01T01:19:15;11.40;99.90
23010;DHT22;11671;49.990;8.028;2023-04-01T01:22:08;11.40;99.90
23010;DHT22;11671;49.990;8.028;2023-04-01T01:24:44;11.30;99.90
23010;DHT22;11671;49.990;8.028;2023-04-01T01:27:16;11.30;99.90
23010;DHT22;11671;49.990;8.028;2023-04-01T01:32:38;11.30;99.90
23010;DHT22;11671;49.990;8.028;2023-04-01T01:37:35;11.30;99.90
23010;DHT22;11671;49.990;8.028;2023-04-01T01:40:03;11.40;99.90
23010;DHT22;11671;49.990;8.028;2023-04-01T01:42:31;11.50;99.90
23010;DHT22;11671;49.990;8.028;2023-04-01T01:44:58;11.50;99.90
23010;DHT22;11671;49.990;8.028;2023-04-01T01:47:25;11.50;99.90
23010;DHT22;11671;49.990;8.028;2023-04-01T01:49:51;11.40;99.90
23010;DHT22;11671;49.990;8.028;2023-04-01T01:52:17;11.40;99.90
23010;DHT22;11671;49.990;8.028;2023-04-01T01:54:47;11.40;99.90
23010;DHT22;11671;49.990;8.028;2023-04-01T01:57:12;11.40;99.90
23010;DHT22;11671;49.990;8.028;2023-04-01T01:59:39;11.40;99.90
23010;DHT22;11671;49.990;8.028;2023-04-01T02:02:05;11.30;99.90
23010;DHT22;11671;49.990;8.028;2023-04-01T02:04:39;11.30;99.90
23010;DHT22;11671;49.990;8.028;2023-04-01T02:07:07;11.30;99.90
23010;DHT22;11671;49.990;8.028;2023-04-01T02:09:33;11.30;99.90
23010;DHT22;11671;49.990;8.028;2023-04-01T02:12:01;11.30;99.90
23010;DHT22;11671;49.990;8.028;2023-04-01T02:14:29;11.30;99.90
23010;DHT22;11671;49.990;8.028;2023-04-01T02:17:01;11.30;99.90
23010;DHT22;11671;49.990;8.028;2023-04-01T02:19:30;11.30;99.90
23010;DHT22;11671;49.990;8.028;2023-04-01T02:21:57;11.20;99.90
23010;DHT22;11671;49.990;8.028;2023-04-01T02:24:24;11.30;99.90
23010;DHT22;11671;49.990;8.028;2023-04-01T02:26:52;11.30;99.90
23010;DHT22;11671;49.990;8.028;2023-04-01T02:29:21;11.20;99.90
23010;DHT22;11671;49.990;8.028;2023-04-01T02:31:48;11.30;99.90
23010;DHT22;11671;49.990;8.028;2023-04-01T02:34:14;11.20;99.90
23010;DHT22;11671;49.990;8.028;2023-04-01T02:36:40;11.20;99.90
23010;DHT22;11671;49.990;8.028;2023-04-01T02:39:05;11.20;99.90
23010;DHT22;11671;49.990;8.028;2023-04-01T02:41:31;11.20;99.90
23010;DHT22;11671;49.990;8.028;2023-04-01T02:44:03;11.20;99.90
23010;DHT22;11671;49.990;8.028;2023-04-01T02:46:29;11.20;99.90
23010;DHT22;11671;49.990;8.028;2023-04-01T02:48:54;11.10;99.90
23010;DHT22;11671;49.990;8.028;2023-04-01T02:51:20;11.10;99.90
23010;DHT22;11671;49.990;8.028;2023-04-01T02:53:45;11.10;99.90
23010;DHT22;11671;49.990;8.028;2023-04-01T02:56:11;11.20;99.90
23010;DHT22;11671;49.990;8.028;2023-04-01T02:58:36;11.10;99.90
23010;DHT22;11671;49.990;8.028;2023-04-01T03:01:02;11.10;99.90
23010;DHT22;11671;49.990;8.028;2023-04-01T03:03:27;11.10;99.90
23010;DHT22;11671;49.990;8.028;2023-04-01T03:05:53;11.10;99.90
23010;DHT22;11671;49.990;8.028;2023-04-01T03:08:21;11.10;99.90
23010;DHT22;11671;49.990;8.028;2023-04-01T03:10:46;11.10;99.90
23010;DHT22;11671;49.990;8.028;2023-04-01T03:13:12;11.10;99.90
23010;DHT22;11671;49.990;8.028;2023-04-01T03:15:37;11.00;99.90
23010;DHT22;11671;49.990;8.028;2023-04-01T03:18:03;11.10;99.90
23010;DHT22;11671;49.990;8.028;2023-04-01T03:20:28;11.00;99.90
23010;DHT22;11671;49.990;8.028;2023-04-01T03:22:54;11.10;99.90
23010;DHT22;11671;49.990;8.028;2023-04-01T03:25:19;11.10;99.90
23010;DHT22;11671;49.990;8.028;2023-04-01T03:27:45;11.20;99.90
23010;DHT22;11671;49.990;8.028;2023-04-01T03:30:10;11.20;99.90
23010;DHT22;11671;49.990;8.028;2023-04-01T03:32:36;11.20;99.90
23010;DHT22;11671;49.990;8.028;2023-04-01T03:35:02;11.30;99.90
23010;DHT22;11671;49.990;8.028;2023-04-01T03:37:27;11.30;99.90
23010;DHT22;11671;49.990;8.028;2023-04-01T03:39:53;11.20;99.90
23010;DHT22;11671;49.990;8.028;2023-04-01T03:42:18;11.30;99.90
23010;DHT22;11671;49.990;8.028;2023-04-01T03:44:44;11.30;99.90
23010;DHT22;11671;49.990;8.028;2023-04-01T03:47:10;11.30;99.90
23010;DHT22;11671;49.990;8.028;2023-04-01T03:49:35;11.20;99.90
23010;DHT22;11671;49.990;8.028;2023-04-01T03:52:01;11.30;99.90
23010;DHT22;11671;49.990;8.028;2023-04-01T03:54:27;11.30;99.90
23010;DHT22;11671;49.990;8.028;2023-04-01T03:56:52;11.20;99.90
23010;DHT22;11671;49.990;8.028;2023-04-01T03:59:17;11.30;99.90
23010;DHT22;11671;49.990;8.028;2023-04-01T04:01:43;11.30;99.90
23010;DHT22;11671;49.990;8.028;2023-04-01T04:04:12;11.30;99.90
23010;DHT22;11671;49.990;8.028;2023-04-01T04:06:40;11.20;99.90
23010;DHT22;11671;49.990;8.028;2023-04-01T04:09:06;11.20;99.90
23010;DHT22;11671;49.990;8.028;2023-04-01T04:11:31;11.20;99.90
23010;DHT22;11671;49.990;8.028;2023-04-01T04:13:58;11.30;99.90
23010;DHT22;11671;49.990;8.028;2023-04-01T04:16:23;11.30;99.90
23010;DHT22;11671;49.990;8.028;2023-04-01T04:18:49;11.20;99.90
23010;DHT22;11671;49.990;8.028;2023-04-01T04:21:16;11.30;99.90
23010;DHT22;11671;49.990;8.028;2023-04-01T04:23:42;11.20;99.90
23010;DHT22;11671;49.990;8.028;2023-04-01T04:26:09;11.20;99.90
23010;DHT22;11671;49.990;8.028;2023-04-01T04:28:34;11.10;99.90
23010;DHT22;11671;49.990;8.028;2023-04-01T04:31:00;11.20;99.90
23010;DHT22;11671;49.990;8.028;2023-04-01T04:33:25;11.20;99.90
23010;DHT22;11671;49.990;8.028;2023-04-01T04:35:51;11.10;99.90
23010;DHT22;11671;49.990;8.028;2023-04-01T04:38:19;11.20;99.90
23010;DHT22;11671;49.990;8.028;2023-04-01T04:40:45;11.20;99.90
23010;DHT22;11671;49.990;8.028;2023-04-01T04:43:11;11.20;99.90
23010;DHT22;11671;49.990;8.028;2023-04-01T04:45:37;11.20;99.90
23010;DHT22;11671;49.990;8.028;2023-04-01T04:48:03;11.10;99.90
23010;DHT22;11671;49.990;8.028;2023-04-01T04:50:28;11.20;99.90
23010;DHT22;11671;49.990;8.028;2023-04-01T04:52:54;11.20;99.90
23010;DHT22;11671;49.990;8.028;2023-04-01T04:55:20;11.20;99.90
23010;DHT22;11671;49.990;8.028;2023-04-01T04:57:45;11.20;99.90
23010;DHT22;11671;49.990;8.028;2023-04-01T05:00:11;11.10;99.90
23010;DHT22;11671;49.990;8.028;2023-04-01T05:02:37;11.20;99.90
23010;DHT22;11671;49.990;8.028;2023-04-01T05:05:02;11.20;99.90
23010;DHT22;11671;49.990;8.028;2023-04-01T05:07:28;11.10;99.90
23010;DHT22;11671;49.990;8.028;2023-04-01T05:09:53;11.10;99.90
23010;DHT22;11671;49.990;8.028;2023-04-01T05:12:19;11.00;99.90
23010;DHT22;11671;49.990;8.028;2023-04-01T05:14:44;11.00;99.90
23010;DHT22;11671;49.990;8.028;2023-04-01T05:17:10;11.10;99.90
23010;DHT22;11671;49.990;8.028;2023-04-01T05:19:36;11.00;99.90
23010;DHT22;11671;49.990;8.028;2023-04-01T05:22:02;11.00;99.90
23010;DHT22;11671;49.990;8.028;2023-04-01T05:24:27;11.10;99.90
23010;DHT22;11671;49.990;8.028;2023-04-01T05:26:53;11.10;99.90
23010;DHT22;11671;49.990;8.028;2023-04-01T05:29:18;11.10;99.90
23010;DHT22;11671;49.990;8.028;2023-04-01T05:31:44;11.10;99.90
23010;DHT22;11671;49.990;8.028;2023-04-01T05:34:09;11.10;99.90
23010;DHT22;11671;49.990;8.028;2023-04-01T05:36:35;11.10;99.90
23010;DHT22;11671;49.990;8.028;2023-04-01T05:39:01;11.00;99.90
23010;DHT22;11671;49.990;8.028;2023-04-01T05:41:26;11.00;99.90
23010;DHT22;11671;49.990;8.028;2023-04-01T05:43:52;11.00;99.90
23010;DHT22;11671;49.990;8.028;2023-04-01T05:46:17;11.10;99.90
23010;DHT22;11671;49.990;8.028;2023-04-01T05:48:42;11.20;99.90
23010;DHT22;11671;49.990;8.028;2023-04-01T05:51:14;11.20;99.90
23010;DHT22;11671;49.990;8.028;2023-04-01T05:53:40;11.20;99.90
23010;DHT22;11671;49.990;8.028;2023-04-01T05:56:06;11.20;99.90
23010;DHT22;11671;49.990;8.028;2023-04-01T05:58:33;11.20;99.90
23010;DHT22;11671;49.990;8.028;2023-04-01T06:01:06;11.30;99.90
23010;DHT22;11671;49.990;8.028;2023-04-01T06:03:31;11.20;99.90
23010;DHT22;11671;49.990;8.028;2023-04-01T06:05:57;11.30;99.90
23010;DHT22;11671;49.990;8.028;2023-04-01T06:08:23;11.30;99.90
23010;DHT22;11671;49.990;8.028;2023-04-01T06:18:52;11.50;99.90
23010;DHT22;11671;49.990;8.028;2023-04-01T06:24:24;11.30;99.90
23010;DHT22;11671;49.990;8.028;2023-04-01T06:37:38;11.40;99.90
23010;DHT22;11671;49.990;8.028;2023-04-01T06:40:12;11.30;99.90
23010;DHT22;11671;49.990;8.028;2023-04-01T06:45:35;11.50;99.90
23010;DHT22;11671;49.990;8.028;2023-04-01T06:53:33;11.60;99.90
23010;DHT22;11671;49.990;8.028;2023-04-01T06:56:02;11.60;99.90
23010;DHT22;11671;49.990;8.028;2023-04-01T06:58:34;11.70;99.90
23010;DHT22;11671;49.990;8.028;2023-04-01T07:01:02;11.70;99.90
23010;DHT22;11671;49.990;8.028;2023-04-01T07:05:59;11.70;99.90
23010;DHT22;11671;49.990;8.028;2023-04-01T07:08:26;11.60;99.90
23010;DHT22;11671;49.990;8.028;2023-04-01T07:10:58;11.70;99.90
23010;DHT22;11671;49.990;8.028;2023-04-01T07:14:10;11.70;99.90
23010;DHT22;11671;49.990;8.028;2023-04-01T07:18:44;11.80;99.90
23010;DHT22;11671;49.990;8.028;2023-04-01T07:21:32;11.90;99.90
23010;DHT22;11671;49.990;8.028;2023-04-01T07:24:10;12.20;99.90
23010;DHT22;11671;49.990;8.028;2023-04-01T07:26:37;12.30;99.90
23010;DHT22;11671;49.990;8.028;2023-04-01T07:29:05;12.30;99.90
23010;DHT22;11671;49.990;8.028;2023-04-01T07:36:31;13.10;99.90
23010;DHT22;11671;49.990;8.028;2023-04-01T07:41:30;13.30;99.90
23010;DHT22;11671;49.990;8.028;2023-04-01T07:49:07;13.10;99.90
23010;DHT22;11671;49.990;8.028;2023-04-01T07:57:03;12.80;99.90
23010;DHT22;11671;49.990;8.028;2023-04-01T08:02:22;12.90;99.90
23010;DHT22;11671;49.990;8.028;2023-04-01T08:04:56;13.00;99.90
23010;DHT22;11671;49.990;8.028;2023-04-01T08:07:27;13.00;99.90
23010;DHT22;11671;49.990;8.028;2023-04-01T08:10:19;13.10;99.90
23010;DHT22;11671;49.990;8.028;2023-04-01T08:20:55;12.80;99.90
23010;DHT22;11671;49.990;8.028;2023-04-01T08:23:33;12.70;99.90
23010;DHT22;11671;49.990;8.028;2023-04-01T08:26:23;12.70;99.90
23010;DHT22;11671;49.990;8.028;2023-04-01T08:28:53;12.70;99.90
23010;DHT22;11671;49.990;8.028;2023-04-01T08:31:29;12.90;99.90
23010;DHT22;11671;49.990;8.028;2023-04-01T08:33:56;13.00;99.90
23010;DHT22;11671;49.990;8.028;2023-04-01T08:36:28;13.00;99.90
23010;DHT22;11671;49.990;8.028;2023-04-01T08:39:12;12.90;99.90
23010;DHT22;11671;49.990;8.028;2023-04-01T08:41:48;12.80;99.90
23010;DHT22;11671;49.990;8.028;2023-04-01T08:49:48;12.80;99.90
23010;DHT22;11671;49.990;8.028;2023-04-01T08:52:35;12.80;99.90
23010;DHT22;11671;49.990;8.028;2023-04-01T08:55:03;13.00;99.90
23010;DHT22;11671;49.990;8.028;2023-04-01T08:57:54;13.00;99.90
23010;DHT22;11671;49.990;8.028;2023-04-01T09:00:49;12.90;99.90
23010;DHT22;11671;49.990;8.028;2023-04-01T09:03:14;12.90;99.90
23010;DHT22;11671;49.990;8.028;2023-04-01T09:24:24;12.90;99.90
23010;DHT22;11671;49.990;8.028;2023-04-01T09:31:59;13.00;99.90
23010;DHT22;11671;49.990;8.028;2023-04-01T09:37:06;13.10;99.90
23010;DHT22;11671;49.990;8.028;2023-04-01T09:39:43;13.20;99.90
23010;DHT22;11671;49.990;8.028;2023-04-01T09:45:09;13.20;99.90
23010;DHT22;11671;49.990;8.028;2023-04-01T10:03:29;13.50;99.90
23010;DHT22;11671;49.990;8.028;2023-04-01T10:11:01;13.80;99.90
23010;DHT22;11671;49.990;8.028;2023-04-01T10:44:58;14.70;99.90
23010;DHT22;11671;49.990;8.028;2023-04-01T10:47:38;14.70;99.90
23010;DHT22;11671;49.990;8.028;2023-04-01T10:50:13;14.70;99.90
23010;DHT22;11671;49.990;8.028;2023-04-01T11:13:02;14.50;99.90
23010;DHT22;11671;49.990;8.028;2023-04-01T11:23:30;14.50;99.90
23010;DHT22;11671;49.990;8.028;2023-04-01T11:33:34;14.30;99.90
23010;DHT22;11671;49.990;8.028;2023-04-01T11:38:44;14.10;99.90
23010;DHT22;11671;49.990;8.028;2023-04-01T11:43:55;14.10;99.90
23010;DHT22;11671;49.990;8.028;2023-04-01T11:46:30;14.10;99.90
23010;DHT22;11671;49.990;8.028;2023-04-01T11:56:31;16.30;99.90
23010;DHT22;11671;49.990;8.028;2023-04-01T12:01:48;15.10;99.90
23010;DHT22;11671;49.990;8.028;2023-04-01T12:06:45;14.50;99.90
23010;DHT22;11671;49.990;8.028;2023-04-01T12:09:22;14.30;99.90
23010;DHT22;11671;49.990;8.028;2023-04-01T12:12:35;14.20;99.90
23010;DHT22;11671;49.990;8.028;2023-04-01T12:14:41;14.30;99.90
23010;DHT22;11671;49.990;8.028;2023-04-01T12:17:31;14.50;99.90
23010;DHT22;11671;49.990;8.028;2023-04-01T12:22:46;14.60;99.90
23010;DHT22;11671;49.990;8.028;2023-04-01T12:25:33;14.60;99.90
23010;DHT22;11671;49.990;8.028;2023-04-01T12:30:34;14.40;99.90
23010;DHT22;11671;49.990;8.028;2023-04-01T12:40:38;14.10;99.90
23010;DHT22;11671;49.990;8.028;2023-04-01T12:43:11;14.10;99.90
23010;DHT22;11671;49.990;8.028;2023-04-01T12:56:08;14.40;99.90
23010;DHT22;11671;49.990;8.028;2023-04-01T12:58:43;14.40;99.90
23010;DHT22;11671;49.990;8.028;2023-04-01T13:09:06;13.90;99.90
23010;DHT22;11671;49.990;8.028;2023-04-01T13:17:04;13.70;99.90
23010;DHT22;11671;49.990;8.028;2023-04-01T13:25:03;13.60;99.90
23010;DHT22;11671;49.990;8.028;2023-04-01T13:27:43;13.80;99.90
23010;DHT22;11671;49.990;8.028;2023-04-01T13:32:44;13.90;99.90
23010;DHT22;11671;49.990;8.028;2023-04-01T13:42:48;13.90;99.90
23010;DHT22;11671;49.990;8.028;2023-04-01T13:45:19;13.90;99.90
23010;DHT22;11671;49.990;8.028;2023-04-01T13:47:59;13.80;99.90
23010;DHT22;11671;49.990;8.028;2023-04-01T14:01:57;13.40;99.90
23010;DHT22;11671;49.990;8.028;2023-04-01T14:06:31;13.50;99.90
23010;DHT22;11671;49.990;8.028;2023-04-01T14:09:03;13.50;99.90
23010;DHT22;11671;49.990;8.028;2023-04-01T14:19:20;13.50;99.90
23010;DHT22;11671;49.990;8.028;2023-04-01T14:24:32;13.50;99.90
23010;DHT22;11671;49.990;8.028;2023-04-01T14:32:11;13.60;99.90
23010;DHT22;11671;49.990;8.028;2023-04-01T14:47:39;13.90;99.90
23010;DHT22;11671;49.990;8.028;2023-04-01T14:50:18;14.00;99.90
23010;DHT22;11671;49.990;8.028;2023-04-01T14:52:49;14.10;99.90
23010;DHT22;11671;49.990;8.028;2023-04-01T14:55:29;14.20;99.90
23010;DHT22;11671;49.990;8.028;2023-04-01T14:58:00;14.30;99.90
23010;DHT22;11671;49.990;8.028;2023-04-01T15:00:36;14.30;99.90
23010;DHT22;11671;49.990;8.028;2023-04-01T15:03:25;14.40;99.90
23010;DHT22;11671;49.990;8.028;2023-04-01T15:05:55;14.50;99.90
23010;DHT22;11671;49.990;8.028;2023-04-01T15:08:33;14.60;99.90
23010;DHT22;11671;49.990;8.028;2023-04-01T15:13:35;14.50;99.90
23010;DHT22;11671;49.990;8.028;2023-04-01T15:23:56;14.50;99.90
23010;DHT22;11671;49.990;8.028;2023-04-01T15:26:33;14.40;99.90
23010;DHT22;11671;49.990;8.028;2023-04-01T15:34:20;14.10;99.90
23010;DHT22;11671;49.990;8.028;2023-04-01T15:47:00;13.80;99.90
23010;DHT22;11671;49.990;8.028;2023-04-01T16:18:02;13.70;99.90
23010;DHT22;11671;49.990;8.028;2023-04-01T16:20:45;13.70;99.90
23010;DHT22;11671;49.990;8.028;2023-04-01T16:23:22;13.50;99.90
23010;DHT22;11671;49.990;8.028;2023-04-01T16:26:11;13.40;99.90
23010;DHT22;11671;49.990;8.028;2023-04-01T16:36:41;13.30;99.90
23010;DHT22;11671;49.990;8.028;2023-04-01T16:44:30;13.40;99.90
23010;DHT22;11671;49.990;8.028;2023-04-01T16:46:56;13.50;99.90
23010;DHT22;11671;49.990;8.028;2023-04-01T16:54:29;13.50;99.90
23010;DHT22;11671;49.990;8.028;2023-04-01T16:57:02;13.50;99.90
23010;DHT22;11671;49.990;8.028;2023-04-01T16:59:35;13.40;99.90
23010;DHT22;11671;49.990;8.028;2023-04-01T17:02:08;13.30;99.90
23010;DHT22;11671;49.990;8.028;2023-04-01T17:04:47;13.30;99.90
23010;DHT22;11671;49.990;8.028;2023-04-01T17:10:02;13.10;99.90
23010;DHT22;11671;49.990;8.028;2023-04-01T17:12:33;13.10;99.90
23010;DHT22;11671;49.990;8.028;2023-04-01T17:20:32;12.90;99.90
23010;DHT22;11671;49.990;8.028;2023-04-01T17:28:49;12.90;99.90
23010;DHT22;11671;49.990;8.028;2023-04-01T17:31:38;12.90;99.90
23010;DHT22;11671;49.990;8.028;2023-04-01T17:36:36;12.80;99.90
23010;DHT22;11671;49.990;8.028;2023-04-01T17:41:48;12.70;99.90
23010;DHT22;11671;49.990;8.028;2023-04-01T17:49:49;12.70;99.90
23010;DHT22;11671;49.990;8.028;2023-04-01T17:57:31;12.70;99.90
23010;DHT22;11671;49.990;8.028;2023-04-01T18:02:37;12.60;99.90
23010;DHT22;11671;49.990;8.028;2023-04-01T18:10:51;12.50;99.90
23010;DHT22;11671;49.990;8.028;2023-04-01T18:16:02;12.40;99.90
23010;DHT22;11671;49.990;8.028;2023-04-01T18:23:53;12.30;99.90
23010;DHT22;11671;49.990;8.028;2023-04-01T18:26:21;12.40;99.90
23010;DHT22;11671;49.990;8.028;2023-04-01T18:28:49;12.40;99.90
23010;DHT22;11671;49.990;8.028;2023-04-01T18:31:18;12.40;99.90
23010;DHT22;11671;49.990;8.028;2023-04-01T18:39:16;12.50;99.90
23010;DHT22;11671;49.990;8.028;2023-04-01T18:46:41;12.30;99.90
23010;DHT22;11671;49.990;8.028;2023-04-01T18:51:57;12.10;99.90
23010;DHT22;11671;49.990;8.028;2023-04-01T18:54:28;12.00;99.90
23010;DHT22;11671;49.990;8.028;2023-04-01T18:57:08;11.90;99.90
23010;DHT22;11671;49.990;8.028;2023-04-01T18:59:40;11.80;99.90
23010;DHT22;11671;49.990;8.028;2023-04-01T19:04:36;11.80;99.90
23010;DHT22;11671;49.990;8.028;2023-04-01T19:09:48;11.70;99.90
23010;DHT22;11671;49.990;8.028;2023-04-01T19:12:26;11.70;99.90
23010;DHT22;11671;49.990;8.028;2023-04-01T19:23:02;11.60;99.90
23010;DHT22;11671;49.990;8.028;2023-04-01T19:28:01;11.60;99.90
23010;DHT22;11671;49.990;8.028;2023-04-01T19:33:21;11.60;99.90
23010;DHT22;11671;49.990;8.028;2023-04-01T19:35:52;11.60;99.90
23010;DHT22;11671;49.990;8.028;2023-04-01T19:38:28;11.40;99.90
23010;DHT22;11671;49.990;8.028;2023-04-01T19:41:38;11.40;99.90
23010;DHT22;11671;49.990;8.028;2023-04-01T19:43:50;11.40;99.90
23010;DHT22;11671;49.990;8.028;2023-04-01T19:51:09;11.20;99.90
23010;DHT22;11671;49.990;8.028;2023-04-01T19:56:12;11.20;99.90
23010;DHT22;11671;49.990;8.028;2023-04-01T20:01:20;11.20;99.90
23010;DHT22;11671;49.990;8.028;2023-04-01T20:06:21;11.20;99.90
23010;DHT22;11671;49.990;8.028;2023-04-01T20:08:51;11.20;99.90
23010;DHT22;11671;49.990;8.028;2023-04-01T20:13:49;11.40;99.90
23010;DHT22;11671;49.990;8.028;2023-04-01T20:16:16;11.40;99.90
23010;DHT22;11671;49.990;8.028;2023-04-01T20:18:47;11.40;99.90
23010;DHT22;11671;49.990;8.028;2023-04-01T20:23:41;11.40;99.90
23010;DHT22;11671;49.990;8.028;2023-04-01T20:26:12;11.40;99.90
23010;DHT22;11671;49.990;8.028;2023-04-01T20:33:58;11.50;99.90
23010;DHT22;11671;49.990;8.028;2023-04-01T20:36:36;11.40;99.90
23010;DHT22;11671;49.990;8.028;2023-04-01T20:41:48;11.40;99.90
23010;DHT22;11671;49.990;8.028;2023-04-01T20:46:55;11.40;99.90
23010;DHT22;11671;49.990;8.028;2023-04-01T20:49:30;11.30;99.90
23010;DHT22;11671;49.990;8.028;2023-04-01T21:02:24;11.30;99.90
23010;DHT22;11671;49.990;8.028;2023-04-01T21:07:34;11.20;99.90
23010;DHT22;11671;49.990;8.028;2023-04-01T21:12:48;11.30;99.90
23010;DHT22;11671;49.990;8.028;2023-04-01T21:22:56;11.30;99.90
23010;DHT22;11671;49.990;8.028;2023-04-01T21:28:22;11.40;99.90
23010;DHT22;11671;49.990;8.028;2023-04-01T21:33:41;11.40;99.90
23010;DHT22;11671;49.990;8.028;2023-04-01T21:41:53;11.30;99.90
23010;DHT22;11671;49.990;8.028;2023-04-01T21:49:43;11.30;99.90
23010;DHT22;11671;49.990;8.028;2023-04-01T21:54:50;11.20;99.90
23010;DHT22;11671;49.990;8.028;2023-04-01T22:00:52;11.20;99.90
23010;DHT22;11671;49.990;8.028;2023-04-01T22:03:03;11.10;99.90
23010;DHT22;11671;49.990;8.028;2023-04-01T22:05:34;11.20;99.90
23010;DHT22;11671;49.990;8.028;2023-04-01T22:11:07;11.10;99.90
23010;DHT22;11671;49.990;8.028;2023-04-01T22:21:12;11.30;99.90
23010;DHT22;11671;49.990;8.028;2023-04-01T22:24:04;11.30;99.90
23010;DHT22;11671;49.990;8.028;2023-04-01T22:29:05;11.10;99.90
23010;DHT22;11671;49.990;8.028;2023-04-01T22:31:43;11.10;99.90
23010;DHT22;11671;49.990;8.028;2023-04-01T22:34:14;11.00;99.90
23010;DHT22;11671;49.990;8.028;2023-04-01T22:39:20;11.10;99.90
23010;DHT22;11671;49.990;8.028;2023-04-01T22:44:43;11.10;99.90
23010;DHT22;11671;49.990;8.028;2023-04-01T22:54:54;11.20;99.90
23010;DHT22;11671;49.990;8.028;2023-04-01T23:00:05;11.20;99.90
23010;DHT22;11671;49.990;8.028;2023-04-01T23:03:00;11.20;99.90
23010;DHT22;11671;49.990;8.028;2023-04-01T23:05:30;11.20;99.90
23010;DHT22;11671;49.990;8.028;2023-04-01T23:08:02;11.10;99.90
23010;DHT22;11671;49.990;8.028;2023-04-01T23:12:59;11.20;99.90
23010;DHT22;11671;49.990;8.028;2023-04-01T23:15:26;11.30;99.90
23010;DHT22;11671;49.990;8.028;2023-04-01T23:23:56;11.30;99.90
23010;DHT22;11671;49.990;8.028;2023-04-01T23:26:31;11.30;99.90
23010;DHT22;11671;49.990;8.028;2023-04-01T23:28:59;11.40;99.90
23010;DHT22;11671;49.990;8.028;2023-04-01T23:31:32;11.40;99.90
23010;DHT22;11671;49.990;8.028;2023-04-01T23:33:58;11.40;99.90
23010;DHT22;11671;49.990;8.028;2023-04-01T23:36:24;11.40;99.90
23010;DHT22;11671;49.990;8.028;2023-04-01T23:38:50;11.40;99.90
23010;DHT22;11671;49.990;8.028;2023-04-01T23:41:23;11.40;99.90
23010;DHT22;11671;49.990;8.028;2023-04-01T23:44:04;11.50;99.90
23010;DHT22;11671;49.990;8.028;2023-04-01T23:46:31;11.60;99.90
23010;DHT22;11671;49.990;8.028;2023-04-01T23:48:58;11.50;99.90
23010;DHT22;11671;49.990;8.028;2023-04-01T23:51:26;11.50;99.90
23010;DHT22;11671;49.990;8.028;2023-04-01T23:54:02;11.50;99.90
23010;DHT22;11671;49.990;8.028;2023-04-01T23:56:38;11.60;99.90
23010;DHT22;11671;49.990;8.028;2023-04-01T23:59:04;11.60;99.90
